Time,TemperatureF,DewpointF,PressureIn,WindDirection,WindDirectionDegrees,WindSpeedMPH,WindSpeedGustMPH,Humidity,HourlyPrecipIn,Conditions,Clouds,dailyrainin,SolarRadiationWatts/m^2,SoftwareType,DateUTC
2013-10-30 00:03:00,40.0,38.0,-100.00,NE,48,0.0,5.0,92,0.00,,,0.00,0.000000,,2013-10-30 05:03:00,
2013-10-30 00:12:00,38.0,36.0,-100.00,ENE,64,0.0,1.0,94,0.00,,,0.00,0.000000,,2013-10-30 05:12:00,
2013-10-30 00:43:00,38.0,36.0,-100.00,ENE,64,0.0,1.0,94,0.00,,,0.00,0.000000,,2013-10-30 05:43:00,
2013-10-30 00:53:00,38.0,36.0,-100.00,ENE,64,0.0,1.0,94,0.00,,,0.00,0.000000,,2013-10-30 05:53:00,
2013-10-30 01:02:00,38.0,36.0,-100.00,ENE,64,0.0,1.0,94,0.00,,,0.00,0.000000,,2013-10-30 06:02:00,
2013-10-30 01:12:00,36.0,34.0,-100.00,NE,53,0.0,1.0,94,0.00,,,0.00,0.000000,,2013-10-30 06:12:00,
2013-10-30 01:42:00,36.0,34.0,-100.00,NE,53,0.0,1.0,94,0.00,,,0.00,0.000000,,2013-10-30 06:42:00,
2013-10-30 01:53:00,36.0,34.0,-100.00,NE,53,0.0,1.0,94,0.00,,,0.00,0.000000,,2013-10-30 06:53:00,
2013-10-30 02:02:00,36.0,34.0,-100.00,NE,53,0.0,1.0,94,0.00,,,0.00,0.000000,,2013-10-30 07:02:00,
2013-10-30 02:42:00,37.0,36.0,-100.00,East,83,0.0,2.0,95,0.00,,,0.00,0.000000,,2013-10-30 07:42:00,
2013-10-30 02:52:00,37.0,36.0,-100.00,East,83,0.0,2.0,95,0.00,,,0.00,0.000000,,2013-10-30 07:52:00,
2013-10-30 03:02:00,37.0,36.0,-100.00,East,83,0.0,2.0,95,0.00,,,0.00,0.000000,,2013-10-30 08:02:00,
2013-10-30 03:11:00,37.0,36.0,-100.00,East,83,0.0,2.0,95,0.00,,,0.00,0.000000,,2013-10-30 08:11:00,
2013-10-30 03:42:00,39.0,38.0,-100.00,ENE,65,2.0,4.0,95,0.00,,,0.00,0.000000,,2013-10-30 08:42:00,
2013-10-30 03:52:00,39.0,38.0,-100.00,ENE,65,2.0,4.0,95,0.00,,,0.00,0.000000,,2013-10-30 08:52:00,
2013-10-30 04:02:00,39.0,38.0,-100.00,ENE,65,2.0,4.0,95,0.00,,,0.00,0.000000,,2013-10-30 09:02:00,
2013-10-30 04:11:00,39.0,38.0,-100.00,ENE,65,2.0,4.0,95,0.00,,,0.00,0.000000,,2013-10-30 09:11:00,
2013-10-30 04:12:00,40.0,39.0,-100.00,ENE,60,0.0,4.0,95,0.00,,,0.00,0.000000,,2013-10-30 09:12:00,
2013-10-30 04:43:00,40.0,39.0,-100.00,ENE,60,0.0,4.0,95,0.00,,,0.00,0.000000,,2013-10-30 09:43:00,
2013-10-30 04:54:00,40.0,39.0,-100.00,ENE,60,0.0,4.0,95,0.00,,,0.00,0.000000,,2013-10-30 09:54:00,
2013-10-30 05:03:00,40.0,39.0,-100.00,ENE,60,0.0,4.0,95,0.00,,,0.00,0.000000,,2013-10-30 10:03:00,
2013-10-30 05:12:00,40.0,38.0,-100.00,NNE,19,1.0,5.0,94,0.00,,,0.00,0.000000,,2013-10-30 10:12:00,
2013-10-30 05:43:00,40.0,38.0,-100.00,NNE,19,1.0,5.0,94,0.00,,,0.00,0.000000,,2013-10-30 10:43:00,
2013-10-30 05:53:00,40.0,38.0,-100.00,NNE,19,1.0,5.0,94,0.00,,,0.00,0.000000,,2013-10-30 10:53:00,
2013-10-30 06:02:00,40.0,38.0,-100.00,NNE,19,1.0,5.0,94,0.00,,,0.00,0.000000,,2013-10-30 11:02:00,
2013-10-30 06:12:00,41.0,39.0,-100.00,NNE,24,0.0,4.0,94,0.00,,,0.00,0.000000,,2013-10-30 11:12:00,
2013-10-30 06:42:00,41.0,39.0,-100.00,NNE,24,0.0,4.0,94,0.00,,,0.00,0.000000,,2013-10-30 11:42:00,
2013-10-30 06:52:00,41.0,39.0,-100.00,NNE,24,0.0,4.0,94,0.00,,,0.00,0.000000,,2013-10-30 11:52:00,
2013-10-30 07:01:00,41.0,39.0,-100.00,NNE,24,0.0,4.0,94,0.00,,,0.00,0.000000,,2013-10-30 12:01:00,
2013-10-30 07:42:00,41.0,39.0,-100.00,NE,55,1.0,4.0,93,0.00,,,0.00,0.000000,,2013-10-30 12:42:00,
2013-10-30 07:52:00,41.0,39.0,-100.00,NE,55,1.0,4.0,93,0.00,,,0.00,0.000000,,2013-10-30 12:52:00,
2013-10-30 08:02:00,41.0,39.0,-100.00,NE,55,1.0,4.0,93,0.00,,,0.00,0.000000,,2013-10-30 13:02:00,
2013-10-30 08:11:00,41.0,39.0,-100.00,NE,55,1.0,4.0,93,0.00,,,0.00,0.000000,,2013-10-30 13:11:00,
2013-10-30 08:42:00,41.0,39.0,-100.00,NE,45,2.0,6.0,93,0.00,,,0.00,7.000000,,2013-10-30 13:42:00,
2013-10-30 08:52:00,41.0,39.0,-100.00,NE,45,2.0,6.0,93,0.00,,,0.00,7.000000,,2013-10-30 13:52:00,
2013-10-30 09:02:00,41.0,39.0,-100.00,NE,45,2.0,6.0,93,0.00,,,0.00,7.000000,,2013-10-30 14:02:00,
2013-10-30 09:11:00,41.0,39.0,-100.00,NE,45,2.0,6.0,93,0.00,,,0.00,7.000000,,2013-10-30 14:11:00,
2013-10-30 09:42:00,42.0,40.0,-100.00,ENE,77,2.0,7.0,91,0.00,,,0.00,33.000000,,2013-10-30 14:42:00,
2013-10-30 09:52:00,42.0,40.0,-100.00,ENE,77,2.0,7.0,91,0.00,,,0.00,33.000000,,2013-10-30 14:52:00,
2013-10-30 10:02:00,42.0,40.0,-100.00,ENE,77,2.0,7.0,91,0.00,,,0.00,33.000000,,2013-10-30 15:02:00,
2013-10-30 10:11:00,42.0,40.0,-100.00,ENE,77,2.0,7.0,91,0.00,,,0.00,33.000000,,2013-10-30 15:11:00,
2013-10-30 10:12:00,44.0,42.0,-100.00,East,98,2.0,6.0,94,0.00,,,0.00,75.000000,,2013-10-30 15:12:00,
2013-10-30 10:43:00,44.0,42.0,-100.00,East,98,2.0,6.0,94,0.00,,,0.00,75.000000,,2013-10-30 15:43:00,
2013-10-30 10:54:00,44.0,42.0,-100.00,East,98,2.0,6.0,94,0.00,,,0.00,75.000000,,2013-10-30 15:54:00,
2013-10-30 11:03:00,44.0,42.0,-100.00,East,98,2.0,6.0,94,0.00,,,0.00,75.000000,,2013-10-30 16:03:00,
2013-10-30 11:12:00,45.0,44.0,-100.00,East,100,3.0,6.0,96,0.00,,,0.00,70.000000,,2013-10-30 16:12:00,
2013-10-30 11:43:00,45.0,44.0,-100.00,East,100,3.0,6.0,96,0.00,,,0.00,70.000000,,2013-10-30 16:43:00,
2013-10-30 11:53:00,45.0,44.0,-100.00,East,100,3.0,6.0,96,0.00,,,0.00,70.000000,,2013-10-30 16:53:00,
2013-10-30 12:02:00,45.0,44.0,-100.00,East,100,3.0,6.0,96,0.00,,,0.00,70.000000,,2013-10-30 17:02:00,
2013-10-30 12:12:00,48.0,46.0,-100.00,East,84,3.0,7.0,93,0.00,,,0.00,161.000000,,2013-10-30 17:12:00,
2013-10-30 12:42:00,48.0,46.0,-100.00,East,84,3.0,7.0,93,0.00,,,0.00,161.000000,,2013-10-30 17:42:00,
2013-10-30 12:52:00,48.0,46.0,-100.00,East,84,3.0,7.0,93,0.00,,,0.00,161.000000,,2013-10-30 17:52:00,
2013-10-30 13:02:00,48.0,46.0,-100.00,East,84,3.0,7.0,93,0.00,,,0.00,161.000000,,2013-10-30 18:02:00,
2013-10-30 13:42:00,50.0,47.0,-100.00,East,82,3.0,6.0,89,0.00,,,0.00,102.000000,,2013-10-30 18:42:00,
2013-10-30 13:52:00,50.0,47.0,-100.00,East,82,3.0,6.0,89,0.00,,,0.00,102.000000,,2013-10-30 18:52:00,
2013-10-30 14:01:00,50.0,47.0,-100.00,East,82,3.0,6.0,89,0.00,,,0.00,102.000000,,2013-10-30 19:01:00,
2013-10-30 14:11:00,50.0,47.0,-100.00,East,82,3.0,6.0,89,0.00,,,0.00,102.000000,,2013-10-30 19:11:00,
2013-10-30 14:12:00,54.0,50.0,-100.00,SE,126,4.0,10.0,86,0.00,,,0.00,91.000000,,2013-10-30 19:12:00,
2013-10-30 14:42:00,54.0,50.0,-100.00,SE,126,4.0,10.0,86,0.00,,,0.00,91.000000,,2013-10-30 19:42:00,
2013-10-30 14:52:00,54.0,50.0,-100.00,SE,126,4.0,10.0,86,0.00,,,0.00,91.000000,,2013-10-30 19:52:00,
2013-10-30 15:02:00,54.0,50.0,-100.00,SE,126,4.0,10.0,86,0.00,,,0.00,91.000000,,2013-10-30 20:02:00,
2013-10-30 15:12:00,53.0,50.0,-100.00,ESE,108,3.0,11.0,89,0.00,,,0.00,37.000000,,2013-10-30 20:12:00,
2013-10-30 15:42:00,53.0,50.0,-100.00,ESE,108,3.0,11.0,89,0.00,,,0.00,37.000000,,2013-10-30 20:42:00,
2013-10-30 15:52:00,53.0,50.0,-100.00,ESE,108,3.0,11.0,89,0.00,,,0.00,37.000000,,2013-10-30 20:52:00,
2013-10-30 16:01:00,53.0,50.0,-100.00,ESE,108,3.0,11.0,89,0.00,,,0.00,37.000000,,2013-10-30 21:01:00,
2013-10-30 16:12:00,53.0,50.0,-100.00,East,89,2.0,8.0,91,0.00,,,0.00,18.000000,,2013-10-30 21:12:00,
2013-10-30 16:43:00,53.0,50.0,-100.00,East,89,2.0,8.0,91,0.00,,,0.00,18.000000,,2013-10-30 21:43:00,
2013-10-30 16:53:00,53.0,50.0,-100.00,East,89,2.0,8.0,91,0.00,,,0.00,18.000000,,2013-10-30 21:53:00,
2013-10-30 17:04:00,53.0,50.0,-100.00,East,89,2.0,8.0,91,0.00,,,0.00,18.000000,,2013-10-30 22:04:00,
2013-10-30 17:12:00,53.0,51.0,-100.00,SSE,154,3.0,10.0,92,0.00,,,0.00,11.000000,,2013-10-30 22:12:00,
2013-10-30 17:43:00,53.0,51.0,-100.00,SSE,154,3.0,10.0,92,0.00,,,0.00,11.000000,,2013-10-30 22:43:00,
2013-10-30 17:54:00,53.0,51.0,-100.00,SSE,154,3.0,10.0,92,0.00,,,0.00,11.000000,,2013-10-30 22:54:00,
2013-10-30 18:03:00,53.0,51.0,-100.00,SSE,154,3.0,10.0,92,0.00,,,0.00,11.000000,,2013-10-30 23:03:00,
2013-10-30 18:42:00,52.0,51.0,-100.00,SSE,151,3.0,9.0,96,0.00,,,0.00,3.000000,,2013-10-30 23:42:00,
2013-10-30 18:53:00,52.0,51.0,-100.00,SSE,151,3.0,9.0,96,0.00,,,0.00,3.000000,,2013-10-30 23:53:00,
2013-10-30 19:02:00,52.0,51.0,-100.00,SSE,151,3.0,9.0,96,0.00,,,0.00,3.000000,,2013-10-31 00:02:00,
2013-10-30 19:11:00,52.0,51.0,-100.00,SSE,151,3.0,9.0,96,0.00,,,0.00,3.000000,,2013-10-31 00:11:00,
2013-10-30 19:12:00,52.0,51.0,-100.00,SE,124,1.0,6.0,97,0.00,,,0.00,0.000000,,2013-10-31 00:12:00,
2013-10-30 19:42:00,52.0,51.0,-100.00,SE,124,1.0,6.0,97,0.00,,,0.00,0.000000,,2013-10-31 00:42:00,
2013-10-30 19:52:00,52.0,51.0,-100.00,SE,124,1.0,6.0,97,0.00,,,0.00,0.000000,,2013-10-31 00:52:00,
2013-10-30 20:02:00,52.0,51.0,-100.00,SE,124,1.0,6.0,97,0.00,,,0.00,0.000000,,2013-10-31 01:02:00,
2013-10-30 20:12:00,52.0,51.0,-100.00,SE,132,2.0,8.0,98,0.00,,,0.00,0.000000,,2013-10-31 01:12:00,
2013-10-30 20:42:00,52.0,51.0,-100.00,SE,132,2.0,8.0,98,0.00,,,0.00,0.000000,,2013-10-31 01:42:00,
2013-10-30 20:53:00,52.0,51.0,-100.00,SE,132,2.0,8.0,98,0.00,,,0.00,0.000000,,2013-10-31 01:53:00,
2013-10-30 21:02:00,52.0,51.0,-100.00,SE,132,2.0,8.0,98,0.00,,,0.00,0.000000,,2013-10-31 02:02:00,
2013-10-30 21:52:00,53.0,52.0,-100.00,SE,132,2.0,7.0,98,0.00,,,0.00,0.000000,,2013-10-31 02:52:00,
2013-10-30 22:02:00,53.0,52.0,-100.00,SE,132,2.0,7.0,98,0.00,,,0.00,0.000000,,2013-10-31 03:02:00,
2013-10-30 22:11:00,53.0,52.0,-100.00,SE,132,2.0,7.0,98,0.00,,,0.00,0.000000,,2013-10-31 03:11:00,
2013-10-30 22:12:00,53.0,52.0,-100.00,SE,136,1.0,5.0,98,0.00,,,0.00,0.000000,,2013-10-31 03:12:00,
2013-10-30 22:44:00,53.0,52.0,-100.00,SE,136,1.0,5.0,98,0.00,,,0.00,0.000000,,2013-10-31 03:44:00,
2013-10-30 22:55:00,53.0,52.0,-100.00,SE,136,1.0,5.0,98,0.00,,,0.00,0.000000,,2013-10-31 03:55:00,
2013-10-30 23:04:00,53.0,52.0,-100.00,SE,136,1.0,5.0,98,0.00,,,0.00,0.000000,,2013-10-31 04:04:00,
2013-10-30 23:12:00,53.0,52.0,-100.00,SE,146,1.0,4.0,98,0.00,,,0.00,0.000000,,2013-10-31 04:12:00,
2013-10-30 23:43:00,53.0,52.0,-100.00,SE,146,1.0,4.0,98,0.00,,,0.00,0.000000,,2013-10-31 04:43:00,
2013-10-30 23:54:00,53.0,52.0,-100.00,SE,146,1.0,4.0,98,0.00,,,0.00,0.000000,,2013-10-31 04:54:00,